createdAt,value
2023-12-17T00:02:15.521Z,100493.75
2023-12-17T00:04:42.028Z,100480.91
2023-12-17T00:07:08.461Z,100481.22
2023-12-17T00:09:34.884Z,100477.09
2023-12-17T00:12:01.276Z,100482.53
2023-12-17T00:14:27.771Z,100477.28
2023-12-17T00:16:54.116Z,100470.25
2023-12-17T00:19:20.528Z,100466.69
2023-12-17T00:21:46.916Z,100468.47
2023-12-17T00:24:13.644Z,100464.16
2023-12-17T00:26:40.028Z,100471.28
2023-12-17T00:29:06.461Z,100466.97
2023-12-17T00:31:32.832Z,100473.06
2023-12-17T00:33:59.419Z,100470.34
2023-12-17T00:36:25.970Z,100480.66
2023-12-17T00:38:52.383Z,100482.34
2023-12-17T00:41:18.758Z,100483.38
2023-12-17T00:43:45.087Z,100486.56
2023-12-17T00:46:11.429Z,100493.34
2023-12-17T00:48:37.925Z,100493.53
2023-12-17T00:51:04.611Z,100491.66
2023-12-17T00:53:31.001Z,100489.78
2023-12-17T00:55:57.372Z,100488.53
2023-12-17T00:58:23.713Z,100480.28
2023-12-17T01:00:55.225Z,100481.88
2023-12-17T01:03:22.669Z,100470.44
2023-12-17T01:05:49.350Z,100466.13
2023-12-17T01:08:15.868Z,100465.28
2023-12-17T01:10:42.315Z,100466.22
2023-12-17T01:13:08.738Z,100468.94
2023-12-17T01:15:35.163Z,100462.94
2023-12-17T01:18:01.851Z,100469.22
2023-12-17T01:20:28.358Z,100472.88
2023-12-17T01:22:54.691Z,100472.16
2023-12-17T01:25:21.066Z,100474.13
2023-12-17T01:27:47.421Z,100468.31
2023-12-17T01:30:14.096Z,100470.94
2023-12-17T01:32:40.653Z,100483.97
2023-12-17T01:35:07.325Z,100481.25
2023-12-17T01:37:33.729Z,100476.84
2023-12-17T01:40:00.208Z,100474.97
2023-12-17T01:42:26.638Z,100477.59
2023-12-17T01:44:53.035Z,100467.19
2023-12-17T01:47:19.546Z,100460.06
2023-12-17T01:49:46.141Z,100468.78
2023-12-17T01:52:12.721Z,100469.72
2023-12-17T01:54:39.138Z,100479.47
2023-12-17T01:57:06.299Z,100488.47
2023-12-17T01:59:33.444Z,100494.06
2023-12-17T02:02:01.232Z,100498.56
2023-12-17T02:04:27.661Z,100496.97
2023-12-17T02:06:54.184Z,100500.44
2023-12-17T02:09:20.750Z,100490.03
2023-12-17T02:11:47.256Z,100496.22
2023-12-17T02:14:13.606Z,100493.50
2023-12-17T02:16:39.985Z,100488.34
2023-12-17T02:19:06.505Z,100485.75
2023-12-17T02:21:32.943Z,100485.75
2023-12-17T02:23:59.382Z,100485.66
2023-12-17T02:26:25.817Z,100479.56
2023-12-17T02:28:52.150Z,100475.44
2023-12-17T02:31:18.608Z,100473.19
2023-12-17T02:33:45.188Z,100466.41
2023-12-17T02:36:11.741Z,100458.75
2023-12-17T02:38:38.118Z,100453.50
2023-12-17T02:41:04.684Z,100448.34
2023-12-17T02:43:31.095Z,100454.63
2023-12-17T02:45:57.476Z,100466.88
2023-12-17T02:48:23.993Z,100467.91
2023-12-17T02:50:50.508Z,100462.78
2023-12-17T02:53:16.841Z,100455.75
2023-12-17T02:55:43.277Z,100455.66
2023-12-17T02:58:09.652Z,100446.09
2023-12-17T03:00:36.127Z,100445.91
2023-12-17T03:03:02.561Z,100445.63
2023-12-17T03:05:29.068Z,100438.50
2023-12-17T03:07:55.472Z,100428.84
2023-12-17T03:10:21.935Z,100424.53
2023-12-17T03:12:48.288Z,100421.28
2023-12-17T03:15:14.955Z,100425.66
2023-12-17T03:17:41.740Z,100419.50
2023-12-17T03:20:08.854Z,100425.47
2023-12-17T03:22:35.235Z,100422.09
2023-12-17T03:25:01.620Z,100427.44
2023-12-17T03:27:27.974Z,100425.97
2023-12-17T03:29:54.491Z,100413.03
2023-12-17T03:32:20.984Z,100406.75
2023-12-17T03:34:48.215Z,100407.59
2023-12-17T03:37:14.671Z,100405.81
2023-12-17T03:39:41.033Z,100397.09
2023-12-17T03:42:07.510Z,100395.63
2023-12-17T03:44:33.866Z,100400.97
2023-12-17T03:47:00.292Z,100395.91
2023-12-17T03:49:26.764Z,100407.22
2023-12-17T03:51:53.154Z,100411.53
2023-12-17T03:54:19.533Z,100409.84
2023-12-17T03:56:47.160Z,100395.06
2023-12-17T03:59:13.521Z,100402.09
2023-12-17T04:01:47.638Z,100413.50
2023-12-17T04:04:14.047Z,100408.16
2023-12-17T04:06:42.795Z,100413.31
2023-12-17T04:09:10.039Z,100419.41
2023-12-17T04:11:36.787Z,100416.88
2023-12-17T04:14:03.376Z,100414.25
2023-12-17T04:16:29.733Z,100412.56
2023-12-17T04:18:56.282Z,100420.34
2023-12-17T04:21:22.897Z,100426.53
2023-12-17T04:23:49.378Z,100431.19
2023-12-17T04:26:15.786Z,100436.81
2023-12-17T04:28:42.208Z,100422.09
2023-12-17T04:31:08.601Z,100423.97
2023-12-17T04:33:35.154Z,100425.66
2023-12-17T04:36:01.606Z,100425.75
2023-12-17T04:38:27.988Z,100418.81
2023-12-17T04:40:54.329Z,100412.56
2023-12-17T04:43:20.749Z,100411.53
2023-12-17T04:45:47.079Z,100408.81
2023-12-17T04:48:13.605Z,100405.16
2023-12-17T04:50:40.033Z,100402.53
2023-12-17T04:53:06.372Z,100406.09
2023-12-17T04:55:32.724Z,100407.88
2023-12-17T04:57:59.028Z,100416.56
2023-12-17T05:00:25.471Z,100410.41
2023-12-17T05:02:52.401Z,100407.78
2023-12-17T05:05:18.950Z,100414.69
2023-12-17T05:07:45.869Z,100409.47
2023-12-17T05:10:12.375Z,100413.84
2023-12-17T05:12:38.699Z,100415.63
2023-12-17T05:15:05.681Z,100408.63
2023-12-17T05:17:32.280Z,100408.72
2023-12-17T05:19:58.742Z,100414.88
2023-12-17T05:22:25.152Z,100413.41
2023-12-17T05:24:51.578Z,100417.13
2023-12-17T05:27:17.971Z,100409.91
2023-12-17T05:29:44.404Z,100414.56
2023-12-17T05:32:10.844Z,100406.91
2023-12-17T05:34:37.325Z,100410.38
2023-12-17T05:37:03.896Z,100405.22
2023-12-17T05:39:30.449Z,100413.00
2023-12-17T05:41:56.904Z,100403.16
2023-12-17T05:44:23.327Z,100401.19
2023-12-17T05:46:49.826Z,100401.03
2023-12-17T05:49:16.398Z,100402.63
2023-12-17T05:51:44.297Z,100400.94
2023-12-17T05:54:10.712Z,100403.06
2023-12-17T05:56:41.261Z,100401.38
2023-12-17T05:59:07.696Z,100398.75
2023-12-17T06:01:34.858Z,100404.09
2023-12-17T06:04:01.612Z,100401.56
2023-12-17T06:06:30.556Z,100400.72
2023-12-17T06:08:57.313Z,100392.88
2023-12-17T06:11:23.791Z,100398.19
2023-12-17T06:13:50.140Z,100395.66
2023-12-17T06:16:16.549Z,100395.56
2023-12-17T06:18:43.013Z,100390.25
2023-12-17T06:21:09.524Z,100390.44
2023-12-17T06:23:35.905Z,100396.03
2023-12-17T06:26:02.282Z,100386.59
2023-12-17T06:28:28.604Z,100389.31
2023-12-17T06:30:55.133Z,100381.44
2023-12-17T06:33:21.724Z,100377.88
2023-12-17T06:35:48.257Z,100384.63
2023-12-17T06:38:14.655Z,100382.94
2023-12-17T06:40:41.000Z,100396.88
2023-12-17T06:43:07.439Z,100402.97
2023-12-17T06:45:33.851Z,100396.88
2023-12-17T06:48:00.333Z,100399.59
2023-12-17T06:50:26.732Z,100393.59
2023-12-17T06:52:53.109Z,100396.38
2023-12-17T06:55:19.544Z,100404.19
2023-12-17T06:57:45.951Z,100398.84
2023-12-17T07:00:13.010Z,100400.44
2023-12-17T07:02:39.459Z,100401.38
2023-12-17T07:05:06.222Z,100390.81
2023-12-17T07:07:32.606Z,100397.63
2023-12-17T07:09:59.009Z,100396.69
2023-12-17T07:12:25.462Z,100400.81
2023-12-17T07:14:51.926Z,100403.44
2023-12-17T07:17:18.352Z,100413.91
2023-12-17T07:19:44.705Z,100411.03
2023-12-17T07:22:11.087Z,100410.00
2023-12-17T07:24:37.422Z,100402.88
2023-12-17T07:27:04.155Z,100407.03
2023-12-17T07:29:30.553Z,100404.03
2023-12-17T07:31:56.967Z,100406.28
2023-12-17T07:34:23.415Z,100407.78
2023-12-17T07:36:49.812Z,100405.72
2023-12-17T07:39:16.342Z,100404.63
2023-12-17T07:41:42.773Z,100410.50
2023-12-17T07:44:09.116Z,100412.84
2023-12-17T07:46:35.542Z,100416.66
2023-12-17T07:49:02.189Z,100411.81
2023-12-17T07:51:28.823Z,100407.03
2023-12-17T07:53:55.341Z,100402.13
2023-12-17T07:56:21.730Z,100390.13
2023-12-17T07:58:48.141Z,100383.34
2023-12-17T08:01:15.514Z,100390.00
2023-12-17T08:03:43.037Z,100389.63
2023-12-17T08:06:09.584Z,100394.38
2023-12-17T08:08:36.018Z,100394.50
2023-12-17T08:11:02.348Z,100401.72
2023-12-17T08:13:28.714Z,100402.03
2023-12-17T08:15:55.049Z,100395.47
2023-12-17T08:18:21.457Z,100386.31
2023-12-17T08:20:47.896Z,100396.53
2023-12-17T08:23:14.269Z,100398.84
2023-12-17T08:25:40.622Z,100403.69
2023-12-17T08:28:07.090Z,100396.56
2023-12-17T08:30:33.574Z,100402.34
2023-12-17T08:33:00.011Z,100406.97
2023-12-17T08:35:26.614Z,100409.72
2023-12-17T08:37:53.021Z,100413.19
2023-12-17T08:40:20.186Z,100414.34
2023-12-17T08:42:47.766Z,100422.69
2023-12-17T08:45:14.306Z,100423.31
2023-12-17T08:47:41.034Z,100429.84
2023-12-17T08:50:08.329Z,100425.75
2023-12-17T08:52:34.787Z,100419.00
2023-12-17T08:55:01.133Z,100428.78
2023-12-17T08:57:27.634Z,100416.28
2023-12-17T08:59:54.055Z,100414.91
2023-12-17T09:02:20.405Z,100413.41
2023-12-17T09:04:46.781Z,100404.22
2023-12-17T09:07:13.144Z,100410.88
2023-12-17T09:09:39.508Z,100414.03
2023-12-17T09:12:06.374Z,100420.53
2023-12-17T09:14:32.795Z,100416.50
2023-12-17T09:17:00.229Z,100414.28
2023-12-17T09:19:26.669Z,100412.16
2023-12-17T09:21:53.159Z,100415.75
2023-12-17T09:24:19.681Z,100410.72
2023-12-17T09:26:46.092Z,100418.16
2023-12-17T09:29:12.420Z,100414.84
2023-12-17T09:31:38.790Z,100412.88
2023-12-17T09:34:05.200Z,100430.63
2023-12-17T09:36:31.708Z,100420.16
2023-12-17T09:38:58.143Z,100421.16
2023-12-17T09:41:24.734Z,100423.97
2023-12-17T09:43:51.138Z,100417.19
2023-12-17T09:46:18.752Z,100409.41
2023-12-17T09:48:46.662Z,100408.09
2023-12-17T09:51:14.057Z,100407.66
2023-12-17T09:53:40.920Z,100406.38
2023-12-17T09:56:08.621Z,100408.53
2023-12-17T09:58:34.990Z,100409.97
2023-12-17T10:01:01.492Z,100393.47
2023-12-17T10:03:28.056Z,100390.47
2023-12-17T10:05:55.035Z,100388.78
2023-12-17T10:08:21.692Z,100380.88
2023-12-17T10:10:48.070Z,100378.25
2023-12-17T10:13:19.080Z,100366.00
2023-12-17T10:15:52.784Z,100353.03
2023-12-17T10:18:20.345Z,100347.13
2023-12-17T10:20:48.122Z,100350.03
2023-12-17T10:23:15.163Z,100342.31
2023-12-17T10:25:42.285Z,100348.63
2023-12-17T10:28:11.135Z,100342.63
2023-12-17T10:30:38.499Z,100336.13
2023-12-17T10:33:05.788Z,100323.81
2023-12-17T10:35:33.095Z,100330.88
2023-12-17T10:38:01.943Z,100339.72
2023-12-17T10:40:29.912Z,100339.94
2023-12-17T10:42:57.421Z,100340.84
2023-12-17T10:45:25.284Z,100337.81
2023-12-17T10:47:53.494Z,100335.88
2023-12-17T10:50:21.271Z,100336.44
2023-12-17T10:52:47.968Z,100329.94
2023-12-17T10:55:14.928Z,100325.94
2023-12-17T10:57:45.976Z,100335.88
2023-12-17T11:00:14.624Z,100329.06
2023-12-17T11:02:41.778Z,100324.38
2023-12-17T11:05:08.419Z,100328.72
2023-12-17T11:07:38.447Z,100320.25
2023-12-17T11:10:10.910Z,100316.63
2023-12-17T11:12:37.650Z,100321.50
2023-12-17T11:15:05.020Z,100311.22
2023-12-17T11:17:31.567Z,100307.94
2023-12-17T11:20:00.847Z,100304.88
2023-12-17T11:22:28.539Z,100307.13
2023-12-17T11:24:57.320Z,100302.53
2023-12-17T11:27:25.328Z,100304.66
2023-12-17T11:29:56.397Z,100297.88
2023-12-17T11:32:24.702Z,100291.47
2023-12-17T11:34:52.569Z,100278.94
2023-12-17T11:37:20.286Z,100270.41
2023-12-17T11:39:47.163Z,100274.75
2023-12-17T11:42:14.542Z,100275.63
2023-12-17T11:44:48.861Z,100259.88
2023-12-17T11:47:17.062Z,100270.31
2023-12-17T11:49:43.665Z,100274.09
2023-12-17T11:52:13.105Z,100267.28
2023-12-17T11:54:39.561Z,100269.78
2023-12-17T11:57:17.966Z,100259.75
2023-12-17T11:59:44.604Z,100261.97
2023-12-17T12:02:11.576Z,100255.97
2023-12-17T12:04:41.800Z,100250.25
2023-12-17T12:07:09.503Z,100255.00
2023-12-17T12:09:36.084Z,100256.09
2023-12-17T12:12:02.574Z,100251.78
2023-12-17T12:14:29.082Z,100252.59
2023-12-17T12:16:55.463Z,100253.41
2023-12-17T12:19:26.850Z,100246.56
2023-12-17T12:21:56.115Z,100245.97
2023-12-17T12:24:22.714Z,100240.22
2023-12-17T12:26:49.470Z,100238.94
2023-12-17T12:29:15.959Z,100239.09
2023-12-17T12:31:52.179Z,100233.66
2023-12-17T12:34:18.747Z,100222.88
2023-12-17T12:36:46.857Z,100223.56
2023-12-17T12:39:14.701Z,100223.16
2023-12-17T12:41:45.228Z,100221.72
2023-12-17T12:44:13.545Z,100224.63
2023-12-17T12:46:40.769Z,100223.34
2023-12-17T12:49:07.695Z,100216.22
2023-12-17T12:51:35.253Z,100211.47
2023-12-17T12:54:02.206Z,100212.84
2023-12-17T12:56:28.530Z,100211.72
2023-12-17T12:58:55.068Z,100216.56
2023-12-17T13:01:21.543Z,100214.44
2023-12-17T13:03:48.026Z,100205.34
2023-12-17T13:06:14.525Z,100198.38
2023-12-17T13:08:40.990Z,100194.03
2023-12-17T13:11:07.509Z,100197.69
2023-12-17T13:13:34.050Z,100199.34
2023-12-17T13:16:00.462Z,100189.84
2023-12-17T13:18:27.673Z,100180.06
2023-12-17T13:20:54.092Z,100181.59
2023-12-17T13:23:20.835Z,100173.09
2023-12-17T13:25:47.339Z,100167.09
2023-12-17T13:28:13.705Z,100158.44
2023-12-17T13:30:40.227Z,100155.09
2023-12-17T13:33:06.730Z,100154.41
2023-12-17T13:35:33.188Z,100153.06
2023-12-17T13:37:59.764Z,100150.13
2023-12-17T13:40:26.217Z,100146.63
2023-12-17T13:42:52.640Z,100147.47
2023-12-17T13:45:19.107Z,100149.97
2023-12-17T13:47:45.833Z,100152.94
2023-12-17T13:50:13.015Z,100153.22
2023-12-17T13:52:39.461Z,100155.06
2023-12-17T13:55:06.038Z,100145.13
2023-12-17T13:57:32.762Z,100150.28
2023-12-17T13:59:59.113Z,100147.63
2023-12-17T14:02:25.647Z,100154.06
2023-12-17T14:04:52.322Z,100146.41
2023-12-17T14:07:20.751Z,100144.03
2023-12-17T14:09:47.138Z,100143.94
2023-12-17T14:12:13.494Z,100139.75
2023-12-17T14:14:40.191Z,100142.41
2023-12-17T14:17:06.556Z,100133.06
2023-12-17T14:19:32.954Z,100135.19
2023-12-17T14:21:59.467Z,100132.84
2023-12-17T14:24:26.019Z,100130.03
2023-12-17T14:26:55.097Z,100148.75
2023-12-17T14:29:21.457Z,100139.28
2023-12-17T14:31:47.856Z,100137.06
2023-12-17T14:34:14.600Z,100137.31
2023-12-17T14:36:41.047Z,100135.81
2023-12-17T14:39:07.661Z,100128.13
2023-12-17T14:41:34.316Z,100132.75
2023-12-17T14:44:00.738Z,100129.56
2023-12-17T14:46:27.108Z,100124.41
2023-12-17T14:48:53.610Z,100130.84
2023-12-17T14:51:20.154Z,100126.66
2023-12-17T14:53:53.369Z,100129.63
2023-12-17T14:56:24.873Z,100128.94
2023-12-17T14:58:51.257Z,100132.66
2023-12-17T15:01:24.866Z,100132.13
2023-12-17T15:03:55.092Z,100133.41
2023-12-17T15:06:21.544Z,100135.66
2023-12-17T15:08:47.967Z,100124.81
2023-12-17T15:11:14.386Z,100131.47
2023-12-17T15:13:40.737Z,100128.72
2023-12-17T15:16:07.232Z,100130.28
2023-12-17T15:18:33.709Z,100121.19
2023-12-17T15:21:00.231Z,100121.91
2023-12-17T15:23:26.692Z,100123.59
2023-12-17T15:25:53.097Z,100125.28
2023-12-17T15:28:19.540Z,100123.47
2023-12-17T15:30:46.033Z,100125.16
2023-12-17T15:33:12.552Z,100125.94
2023-12-17T15:35:39.011Z,100124.97
2023-12-17T15:38:05.359Z,100119.63
2023-12-17T15:40:31.708Z,100120.47
2023-12-17T15:42:58.047Z,100133.28
2023-12-17T15:45:24.552Z,100123.25
2023-12-17T15:47:51.119Z,100124.47
2023-12-17T15:50:17.822Z,100136.03
2023-12-17T15:52:44.806Z,100130.16
2023-12-17T15:55:11.234Z,100127.78
2023-12-17T15:57:37.789Z,100139.19
2023-12-17T16:00:04.421Z,100133.03
2023-12-17T16:02:31.070Z,100127.00
2023-12-17T16:04:57.595Z,100122.91
2023-12-17T16:07:24.185Z,100132.47
2023-12-17T16:09:50.617Z,100132.31
2023-12-17T16:12:16.966Z,100126.81
2023-12-17T16:14:43.543Z,100130.13
2023-12-17T16:17:09.921Z,100127.41
2023-12-17T16:19:39.317Z,100133.34
2023-12-17T16:22:05.753Z,100127.03
2023-12-17T16:24:32.145Z,100130.28
2023-12-17T16:26:58.529Z,100121.34
2023-12-17T16:29:24.927Z,100123.66
2023-12-17T16:31:51.321Z,100130.31
2023-12-17T16:34:17.752Z,100127.31
2023-12-17T16:36:44.281Z,100126.84
2023-12-17T16:39:10.706Z,100132.38
2023-12-17T16:41:37.156Z,100136.25
2023-12-17T16:44:03.629Z,100138.31
2023-12-17T16:46:29.991Z,100141.16
2023-12-17T16:48:58.917Z,100138.66
2023-12-17T16:51:26.710Z,100138.06
2023-12-17T16:53:53.224Z,100136.91
2023-12-17T16:56:19.663Z,100136.44
2023-12-17T16:58:46.067Z,100134.88
2023-12-17T17:01:12.426Z,100124.81
2023-12-17T17:03:38.933Z,100120.75
2023-12-17T17:06:05.585Z,100121.00
2023-12-17T17:08:31.939Z,100126.66
2023-12-17T17:11:04.642Z,100131.59
2023-12-17T17:13:33.743Z,100126.78
2023-12-17T17:16:00.192Z,100134.94
2023-12-17T17:18:26.710Z,100130.75
2023-12-17T17:20:53.463Z,100129.91
2023-12-17T17:23:19.874Z,100127.25
2023-12-17T17:25:46.256Z,100131.13
2023-12-17T17:28:12.663Z,100138.19
2023-12-17T17:30:39.192Z,100141.44
2023-12-17T17:33:05.786Z,100142.47
2023-12-17T17:35:32.159Z,100142.00
2023-12-17T17:37:58.459Z,100138.66
2023-12-17T17:40:24.827Z,100136.28
2023-12-17T17:42:51.217Z,100152.22
2023-12-17T17:45:17.625Z,100143.69
2023-12-17T17:47:44.040Z,100151.84
2023-12-17T17:50:10.475Z,100154.72
2023-12-17T17:52:36.826Z,100144.53
2023-12-17T17:55:03.225Z,100152.78
2023-12-17T17:57:29.650Z,100160.81
2023-12-17T17:59:56.066Z,100158.28
2023-12-17T18:02:22.675Z,100159.25
2023-12-17T18:04:49.058Z,100156.75
2023-12-17T18:07:15.463Z,100162.25
2023-12-17T18:09:41.812Z,100158.88
2023-12-17T18:12:09.329Z,100159.13
2023-12-17T18:14:35.711Z,100163.88
2023-12-17T18:17:02.136Z,100158.97
2023-12-17T18:19:28.758Z,100160.88
2023-12-17T18:21:55.180Z,100162.78
2023-12-17T18:24:21.604Z,100163.75
2023-12-17T18:26:48.081Z,100155.13
2023-12-17T18:29:14.460Z,100151.06
2023-12-17T18:31:42.624Z,100150.53
2023-12-17T18:34:09.296Z,100150.91
2023-12-17T18:36:35.864Z,100158.19
2023-12-17T18:39:02.288Z,100150.75
2023-12-17T18:41:28.704Z,100153.03
2023-12-17T18:43:55.276Z,100152.31
2023-12-17T18:46:22.024Z,100144.47
2023-12-17T18:48:48.681Z,100153.44
2023-12-17T18:51:15.707Z,100152.63
2023-12-17T18:53:43.179Z,100151.78
2023-12-17T18:56:09.584Z,100146.97
2023-12-17T18:58:36.049Z,100142.06
2023-12-17T19:01:02.774Z,100142.41
2023-12-17T19:03:29.449Z,100146.09
2023-12-17T19:05:56.085Z,100147.13
2023-12-17T19:08:22.624Z,100151.56
2023-12-17T19:10:49.071Z,100148.09
2023-12-17T19:13:15.490Z,100152.63
2023-12-17T19:15:42.066Z,100147.38
2023-12-17T19:18:08.666Z,100138.25
2023-12-17T19:20:35.932Z,100134.28
2023-12-17T19:23:02.326Z,100135.34
2023-12-17T19:25:28.671Z,100137.25
2023-12-17T19:27:55.064Z,100140.00
2023-12-17T19:30:21.500Z,100138.41
2023-12-17T19:32:48.050Z,100135.06
2023-12-17T19:35:14.491Z,100128.97
2023-12-17T19:37:40.903Z,100128.34
2023-12-17T19:40:07.789Z,100129.28
2023-12-17T19:42:34.252Z,100125.81
2023-12-17T19:45:00.919Z,100129.41
2023-12-17T19:47:27.307Z,100123.44
2023-12-17T19:49:53.991Z,100125.44
2023-12-17T19:52:20.330Z,100129.97
2023-12-17T19:54:46.706Z,100127.47
2023-12-17T19:57:13.263Z,100130.19
2023-12-17T19:59:39.645Z,100125.97
2023-12-17T20:02:06.904Z,100131.22
2023-12-17T20:04:33.622Z,100125.06
2023-12-17T20:07:00.247Z,100134.50
2023-12-17T20:09:26.849Z,100132.94
2023-12-17T20:11:56.056Z,100128.72
2023-12-17T20:14:22.543Z,100124.75
2023-12-17T20:16:48.923Z,100135.59
2023-12-17T20:19:15.454Z,100133.91
2023-12-17T20:21:41.933Z,100127.81
2023-12-17T20:24:08.317Z,100124.34
2023-12-17T20:26:34.926Z,100124.47
2023-12-17T20:29:01.305Z,100120.38
2023-12-17T20:31:27.681Z,100117.88
2023-12-17T20:33:54.218Z,100120.50
2023-12-17T20:36:20.709Z,100111.88
2023-12-17T20:38:47.154Z,100113.75
2023-12-17T20:41:17.499Z,100109.34
2023-12-17T20:43:44.388Z,100110.16
2023-12-17T20:46:10.770Z,100111.22
2023-12-17T20:48:37.304Z,100115.03
2023-12-17T20:51:04.299Z,100110.00
2023-12-17T20:53:30.647Z,100106.53
2023-12-17T20:55:56.969Z,100106.31
2023-12-17T20:58:23.431Z,100115.03
2023-12-17T21:00:50.854Z,100107.88
2023-12-17T21:03:17.555Z,100106.31
2023-12-17T21:05:44.018Z,100114.41
2023-12-17T21:08:10.475Z,100099.81
2023-12-17T21:10:36.870Z,100098.34
2023-12-17T21:13:03.350Z,100097.53
2023-12-17T21:15:29.776Z,100093.22
2023-12-17T21:17:57.173Z,100096.78
2023-12-17T21:20:23.639Z,100094.34
2023-12-17T21:22:50.031Z,100083.34
2023-12-17T21:25:16.635Z,100097.63
2023-12-17T21:27:43.276Z,100097.03
2023-12-17T21:30:10.188Z,100096.28
2023-12-17T21:32:36.702Z,100104.59
2023-12-17T21:35:03.227Z,100117.09
2023-12-17T21:37:30.642Z,100117.91
2023-12-17T21:39:57.142Z,100109.97
2023-12-17T21:42:23.571Z,100107.22
2023-12-17T21:44:50.186Z,100114.06
2023-12-17T21:47:16.579Z,100119.31
2023-12-17T21:49:43.213Z,100118.34
2023-12-17T21:52:22.679Z,100104.38
2023-12-17T21:54:57.789Z,100122.78
2023-12-17T21:57:24.240Z,100116.69
2023-12-17T21:59:50.674Z,100113.31
2023-12-17T22:02:17.410Z,100120.38
2023-12-17T22:04:43.812Z,100113.44
2023-12-17T22:07:10.254Z,100109.03
2023-12-17T22:09:39.505Z,100103.94
2023-12-17T22:12:06.541Z,100105.22
2023-12-17T22:14:33.082Z,100106.59
2023-12-17T22:16:59.584Z,100106.94
2023-12-17T22:19:26.119Z,100103.75
2023-12-17T22:21:52.547Z,100104.06
2023-12-17T22:24:19.088Z,100102.59
2023-12-17T22:26:45.749Z,100107.97
2023-12-17T22:29:12.232Z,100107.97
2023-12-17T22:31:39.264Z,100114.16
2023-12-17T22:34:05.997Z,100120.13
2023-12-17T22:36:32.566Z,100121.81
2023-12-17T22:38:59.110Z,100113.22
2023-12-17T22:41:25.473Z,100117.00
2023-12-17T22:43:53.212Z,100112.06
2023-12-17T22:46:19.673Z,100109.75
2023-12-17T22:48:46.131Z,100111.59
2023-12-17T22:51:15.581Z,100110.97
2023-12-17T22:53:42.072Z,100116.22
2023-12-17T22:56:08.530Z,100110.13
2023-12-17T22:58:35.000Z,100110.34
2023-12-17T23:01:01.518Z,100106.38
2023-12-17T23:03:28.002Z,100105.84
2023-12-17T23:05:54.416Z,100101.91
2023-12-17T23:08:20.776Z,100096.03
2023-12-17T23:10:47.174Z,100093.41
2023-12-17T23:13:13.510Z,100103.81
2023-12-17T23:15:39.938Z,100098.56
2023-12-17T23:18:06.414Z,100092.25
2023-12-17T23:20:32.862Z,100095.63
2023-12-17T23:22:59.192Z,100089.47
2023-12-17T23:25:25.548Z,100086.84
2023-12-17T23:27:51.902Z,100090.47
2023-12-17T23:30:18.466Z,100087.13
2023-12-17T23:32:45.067Z,100084.50
2023-12-17T23:35:11.480Z,100088.81
2023-12-17T23:37:37.817Z,100080.31
2023-12-17T23:40:04.620Z,100069.91
2023-12-17T23:42:31.115Z,100074.63
2023-12-17T23:44:57.612Z,100072.53
2023-12-17T23:47:23.970Z,100074.59
2023-12-17T23:49:50.426Z,100069.66
2023-12-17T23:52:16.779Z,100065.56
2023-12-17T23:54:43.308Z,100068.09
2023-12-17T23:57:09.740Z,100057.50
2023-12-17T23:59:36.132Z,100063.56
